Little Rock Air Force Base
KLRF : now visible

Airfield :











YOU CAN JOIN US ON...

 
LOGIN :

Register | Disclaimer

   EN    FR    IT 

 









Legend :    VFR   Marginal VFR   IFR   Intensive IFR   Very Intensive IFR
Visi :
Ceiling :
>= 8 km
>= 3000ft
5 to 8 km
1000 to 3000 ft
1500m to 5 km
500 to 1000 ft
800 to 1500m
200 to 500 ft
< 800m
< 200 ft
Symbols :   Thunderstorms  Fog  Heavy snow  Heavy precipitations  Wind > 20 kt






- Airport Elevation : 311 ft


KLRF - Little Rock Air Force Base

CURRENT METAR :
  • 190156Z AUTO 00000KT 10SM FEW090 10/04 A2984 RMK AO2 SLP109 T01010038

EXPIRED METARs :
  • 190056Z AUTO 17003KT 10SM OVC110 13/04 A2984 RMK AO2 SLP109 T01270041
  • 182356Z AUTO 18004KT 10SM OVC100 14/03 A2983 RMK AO2 SLP105 T01380033 10168 20131 55003

TAF COR TAF KLRF
Valid from the 18 at 23:00 until the 20 at 05:00 UTC


182312Z 1823/2005 VRB06KT 9999 BKN050 620805 510062 QNH2980INS
BECMG 1902/1903 VRB03KT 9999 BKN050 510062 QNH2978INS
BECMG 1908/1909 27006KT 9999 SCT200 510062 QNH2985INS
BECMG 1923/1924 VRB04KT 9999 SKC QNH2995INS TX17/1921Z TN05/1913Z



MET'MAP, your aeronautical weather chart ! - Copyright ORBIFLY December 2007 - Disclaimer

ORBIFLY MET'MAP TEAM :

Programming & Development : Alexandra Zaïnal
Concept & Development : Baudouin d'Aumeries
Co-Development & Prog : Marc-Olivier Méhu
Technical & hardware support : Manuel Goepfert

Contact : metmap@orbifly.com




SOURCES & CREDITS :

   NOAA       Earth
Advisory